Time;durP1;ratioP1;P1;durP2;ratioP2;P2;SDS_P1;SDS_P2;PMS_P1;PMS_P2;Temp;Humidity;BMP_temperature;BMP_pressure;BME280_temperature;BME280_humidity;BME280_pressure;Samples;Min_cycle;Max_cycle;Signal;HPM_P1;HPM_P2
2023/05/17 00:01:43;;;;;;;17.67;5.60;;;8.80;99.90;;;;;;5009598;28;20113;-80
2023/05/17 00:04:09;;;;;;;21.50;5.93;;;8.80;99.90;;;;;;4999791;28;20059;-80
2023/05/17 00:06:35;;;;;;;21.92;5.65;;;8.80;99.90;;;;;;4977381;28;20041;-80
2023/05/17 00:09:02;;;;;;;17.52;5.20;;;8.90;99.90;;;;;;4983959;28;20742;-80
2023/05/17 00:11:27;;;;;;;18.98;5.18;;;8.90;99.90;;;;;;4988993;28;20122;-80
2023/05/17 00:13:53;;;;;;;24.55;5.57;;;8.90;99.90;;;;;;4990718;28;20116;-80
2023/05/17 00:16:19;;;;;;;21.42;5.88;;;8.90;99.90;;;;;;4974480;28;20038;-81
2023/05/17 00:18:44;;;;;;;16.58;4.90;;;9.00;99.90;;;;;;5016243;28;20046;-81
2023/05/17 00:21:10;;;;;;;18.75;4.90;;;9.00;99.90;;;;;;4974859;28;20372;-81
2023/05/17 00:23:36;;;;;;;16.38;4.03;;;8.90;99.90;;;;;;4998645;28;20495;-81
2023/05/17 00:26:01;;;;;;;16.90;4.82;;;8.90;99.90;;;;;;5009158;28;20076;-80
2023/05/17 00:28:27;;;;;;;14.13;4.55;;;8.90;99.90;;;;;;5011596;28;20046;-81
2023/05/17 00:30:53;;;;;;;14.18;4.75;;;8.80;99.90;;;;;;4993112;28;20037;-81
2023/05/17 00:33:18;;;;;;;13.35;3.92;;;8.70;99.90;;;;;;4975253;28;20112;-81
2023/05/17 00:35:44;;;;;;;12.82;3.78;;;8.60;99.90;;;;;;4988929;28;20129;-81
2023/05/17 00:38:10;;;;;;;16.65;4.53;;;8.60;99.90;;;;;;4990833;28;20080;-81
2023/05/17 00:40:36;;;;;;;15.95;4.10;;;8.50;99.90;;;;;;4991916;28;20469;-81
2023/05/17 00:43:01;;;;;;;12.30;4.15;;;8.40;99.90;;;;;;4990078;28;20033;-81
2023/05/17 00:45:27;;;;;;;13.70;4.22;;;8.30;99.90;;;;;;4992163;28;20026;-81
2023/05/17 00:47:53;;;;;;;14.55;4.25;;;8.30;99.90;;;;;;4989467;28;20732;-80
2023/05/17 00:50:19;;;;;;;17.58;4.28;;;8.20;99.90;;;;;;4992805;28;20092;-80
2023/05/17 00:52:45;;;;;;;19.25;4.85;;;8.20;99.90;;;;;;5005664;28;20438;-81
2023/05/17 00:55:11;;;;;;;15.40;3.90;;;8.10;99.90;;;;;;5010873;28;20067;-81
2023/05/17 00:57:37;;;;;;;14.75;3.65;;;8.00;99.90;;;;;;5003762;28;20037;-81
2023/05/17 01:00:03;;;;;;;20.33;4.00;;;7.90;99.90;;;;;;5001535;28;20037;-81
2023/05/17 01:02:29;;;;;;;23.63;4.22;;;7.90;99.90;;;;;;4996186;28;20034;-81
2023/05/17 01:04:56;;;;;;;14.15;4.40;;;7.80;99.90;;;;;;4992717;28;20045;-80
2023/05/17 01:07:21;;;;;;;17.70;4.22;;;7.70;99.90;;;;;;4979396;28;20045;-80
2023/05/17 01:09:47;;;;;;;15.32;3.70;;;7.70;99.90;;;;;;4987860;28;20038;-80
2023/05/17 01:12:13;;;;;;;15.88;3.78;;;7.70;99.90;;;;;;4992845;28;20044;-80
2023/05/17 01:15:06;;;;;;;14.95;4.10;;;7.60;99.90;;;;;;5011842;28;20049;-80
2023/05/17 01:17:42;;;;;;;19.25;4.55;;;7.60;99.90;;;;;;5008785;28;20042;-80
2023/05/17 01:20:28;;;;;;;18.88;3.92;;;7.50;99.90;;;;;;5009617;28;20100;-80
2023/05/17 01:23:19;;;;;;;24.00;4.18;;;7.50;99.90;;;;;;5007788;28;20048;-80
2023/05/17 01:26:16;;;;;;;24.02;4.43;;;7.50;99.90;;;;;;5002443;28;20136;-80
2023/05/17 01:28:45;;;;;;;23.10;5.55;;;7.50;99.90;;;;;;5026624;28;20041;-80
2023/05/17 01:31:12;;;;;;;18.95;4.50;;;7.40;99.90;;;;;;5012369;28;20033;-81
2023/05/17 01:33:38;;;;;;;18.30;4.10;;;7.40;99.90;;;;;;5002958;28;20034;-80
2023/05/17 01:36:04;;;;;;;23.15;4.57;;;7.40;99.90;;;;;;4995097;28;20057;-80
2023/05/17 01:38:30;;;;;;;19.63;4.25;;;7.30;99.90;;;;;;4962739;28;20033;-80
2023/05/17 01:41:15;;;;;;;16.50;4.18;;;7.30;99.90;;;;;;5011762;28;20042;-80
2023/05/17 01:43:44;;;;;;;14.75;4.40;;;7.20;99.90;;;;;;4995888;28;20064;-81
2023/05/17 01:46:25;;;;;;;15.15;3.97;;;7.20;99.90;;;;;;5010032;28;20164;-80
2023/05/17 01:49:20;;;;;;;18.08;4.45;;;7.20;99.90;;;;;;5010742;28;20486;-80
2023/05/17 01:52:02;;;;;;;15.05;4.40;;;7.20;99.90;;;;;;4995713;28;20067;-80
2023/05/17 01:54:44;;;;;;;21.08;3.83;;;7.20;99.90;;;;;;5010832;28;20045;-81
2023/05/17 01:57:11;;;;;;;17.65;4.50;;;7.20;99.90;;;;;;5028172;28;20231;-81
2023/05/17 01:59:38;;;;;;;17.65;4.00;;;7.20;99.90;;;;;;5015065;28;20482;-81
2023/05/17 02:02:08;;;;;;;22.90;4.22;;;7.20;99.90;;;;;;4989402;28;20121;-81
2023/05/17 02:04:37;;;;;;;17.65;4.28;;;7.20;99.90;;;;;;4984927;28;20076;-81
2023/05/17 02:07:03;;;;;;;13.15;3.28;;;7.20;99.90;;;;;;4992398;28;20177;-81
2023/05/17 02:09:28;;;;;;;17.30;4.18;;;7.20;99.90;;;;;;4993345;28;20049;-81
2023/05/17 02:11:54;;;;;;;15.80;4.53;;;7.20;99.90;;;;;;4995640;28;20045;-81
2023/05/17 02:14:20;;;;;;;17.10;4.25;;;7.20;99.90;;;;;;4993873;28;20037;-80
2023/05/17 02:16:46;;;;;;;19.92;3.85;;;7.20;99.90;;;;;;4987975;28;20052;-81
2023/05/17 02:19:12;;;;;;;14.55;3.65;;;7.30;99.90;;;;;;4993349;28;20054;-81
2023/05/17 02:21:38;;;;;;;16.45;3.85;;;7.30;99.90;;;;;;4993322;28;20076;-81
2023/05/17 02:24:04;;;;;;;15.82;3.85;;;7.20;99.90;;;;;;4993002;28;20065;-81
2023/05/17 02:26:30;;;;;;;17.95;4.15;;;7.20;99.90;;;;;;4960102;28;20040;-81
2023/05/17 02:28:56;;;;;;;23.50;4.20;;;7.20;99.90;;;;;;4970612;28;20044;-81
2023/05/17 02:31:25;;;;;;;16.77;4.38;;;7.20;99.90;;;;;;4998705;28;20042;-81
2023/05/17 02:33:52;;;;;;;18.77;3.63;;;7.20;99.90;;;;;;5007456;28;20061;-81
2023/05/17 02:36:17;;;;;;;19.77;4.40;;;7.20;99.90;;;;;;4986470;28;20060;-81
2023/05/17 02:38:43;;;;;;;18.30;4.28;;;7.10;99.90;;;;;;4998684;28;20487;-81
2023/05/17 02:41:08;;;;;;;20.67;3.88;;;7.00;99.90;;;;;;4991465;28;20795;-81
2023/05/17 02:43:34;;;;;;;28.08;4.95;;;7.00;99.90;;;;;;4991101;28;20355;-81
2023/05/17 02:46:00;;;;;;;24.00;4.07;;;7.00;99.90;;;;;;4961954;28;20376;-81
2023/05/17 02:48:26;;;;;;;18.98;4.07;;;7.00;99.90;;;;;;5008721;28;20038;-81
2023/05/17 02:50:51;;;;;;;26.85;4.30;;;7.10;99.90;;;;;;5005644;28;20107;-81
2023/05/17 02:53:17;;;;;;;18.45;4.28;;;7.00;99.90;;;;;;5007863;28;20103;-80
2023/05/17 02:55:43;;;;;;;19.67;4.28;;;7.00;99.90;;;;;;5011470;28;20052;-81
2023/05/17 02:58:08;;;;;;;14.57;3.83;;;6.90;99.90;;;;;;4977500;28;20033;-81
2023/05/17 03:00:34;;;;;;;15.75;3.72;;;6.90;99.90;;;;;;4993897;28;20116;-82
2023/05/17 03:03:00;;;;;;;17.48;3.88;;;6.90;99.90;;;;;;4993288;28;20185;-81
2023/05/17 03:05:26;;;;;;;15.57;3.70;;;6.90;99.90;;;;;;4993174;28;20038;-81
2023/05/17 03:07:52;;;;;;;15.43;3.35;;;6.80;99.90;;;;;;4993104;28;20171;-81
2023/05/17 03:10:17;;;;;;;20.55;4.60;;;6.90;99.90;;;;;;4989888;28;20038;-80
2023/05/17 03:12:43;;;;;;;19.08;3.58;;;6.70;99.90;;;;;;5004488;28;20561;-80
2023/05/17 03:15:09;;;;;;;23.20;3.95;;;6.70;99.90;;;;;;4976276;28;20539;-80
2023/05/17 03:17:35;;;;;;;19.73;4.75;;;6.70;99.90;;;;;;4992464;28;20069;-80
2023/05/17 03:20:01;;;;;;;16.17;3.92;;;6.60;99.90;;;;;;4976065;28;20088;-80
2023/05/17 03:22:27;;;;;;;18.63;3.55;;;6.60;99.90;;;;;;4989170;28;20030;-80
2023/05/17 03:24:53;;;;;;;18.40;4.10;;;6.60;99.90;;;;;;4985614;28;20080;-79
2023/05/17 03:27:18;;;;;;;19.80;4.47;;;6.50;99.90;;;;;;5003625;28;20052;-80
2023/05/17 03:29:44;;;;;;;17.98;3.60;;;6.50;99.90;;;;;;5000256;28;20076;-80
2023/05/17 03:32:09;;;;;;;22.52;4.53;;;6.40;99.90;;;;;;4987329;28;20041;-80
2023/05/17 03:34:35;;;;;;;19.50;3.97;;;6.30;99.90;;;;;;4990473;28;20116;-80
2023/05/17 03:37:01;;;;;;;23.75;4.15;;;6.40;99.90;;;;;;5002020;28;20044;-80
2023/05/17 03:39:26;;;;;;;19.88;4.25;;;6.30;99.90;;;;;;4981955;28;20092;-80
2023/05/17 03:41:52;;;;;;;12.70;3.90;;;6.40;99.90;;;;;;4988211;28;20034;-80
2023/05/17 03:44:18;;;;;;;17.38;4.25;;;6.40;99.90;;;;;;5001920;28;20556;-80
2023/05/17 03:46:43;;;;;;;23.33;3.97;;;6.40;99.90;;;;;;5006847;28;20135;-80
2023/05/17 03:49:09;;;;;;;16.95;3.58;;;6.40;99.90;;;;;;4970452;28;20402;-80
2023/05/17 03:51:35;;;;;;;16.95;4.80;;;6.40;99.90;;;;;;4998545;28;20088;-79
2023/05/17 03:54:01;;;;;;;13.23;3.80;;;6.50;99.90;;;;;;5013178;28;20041;-79
2023/05/17 03:56:26;;;;;;;20.95;3.58;;;6.50;99.90;;;;;;4993028;28;20517;-79
2023/05/17 03:58:52;;;;;;;18.58;3.75;;;6.50;99.90;;;;;;4991753;28;20044;-79
2023/05/17 04:01:19;;;;;;;15.93;4.05;;;6.50;99.90;;;;;;5007139;28;20041;-80
2023/05/17 04:03:45;;;;;;;18.20;3.72;;;6.60;99.90;;;;;;5009958;28;20045;-79
2023/05/17 04:06:13;;;;;;;22.13;4.88;;;6.60;99.90;;;;;;4976374;28;20037;-80
2023/05/17 04:08:39;;;;;;;21.10;4.43;;;6.60;99.90;;;;;;5008047;28;20110;-79
2023/05/17 04:11:14;;;;;;;15.90;3.47;;;6.70;99.90;;;;;;5007799;28;20061;-79
2023/05/17 04:13:40;;;;;;;21.23;4.65;;;6.70;99.90;;;;;;5000388;28;20137;-80
2023/05/17 04:16:09;;;;;;;15.75;3.78;;;6.80;99.90;;;;;;4997894;28;20128;-80
2023/05/17 04:18:36;;;;;;;16.80;4.10;;;6.80;99.90;;;;;;5006510;28;20030;-80
2023/05/17 04:21:03;;;;;;;11.73;3.30;;;6.80;99.90;;;;;;5007981;28;20033;-80
2023/05/17 04:23:30;;;;;;;20.35;3.97;;;6.90;99.90;;;;;;5006880;28;20037;-80
2023/05/17 04:25:56;;;;;;;18.75;4.25;;;6.90;99.90;;;;;;4990430;28;20029;-80
2023/05/17 04:28:23;;;;;;;16.92;4.30;;;6.90;99.90;;;;;;5023758;28;20115;-80
2023/05/17 04:30:49;;;;;;;17.02;3.97;;;6.90;99.90;;;;;;4995086;28;20034;-80
2023/05/17 04:33:14;;;;;;;14.88;3.80;;;6.90;99.90;;;;;;5011819;28;20045;-80
2023/05/17 04:35:41;;;;;;;16.73;3.75;;;7.00;99.90;;;;;;5009202;28;20091;-80
2023/05/17 04:38:07;;;;;;;20.73;3.83;;;7.00;99.90;;;;;;4976440;28;20294;-80
2023/05/17 04:40:33;;;;;;;13.80;3.30;;;7.00;99.90;;;;;;5004665;28;20046;-80
2023/05/17 04:42:59;;;;;;;15.00;3.15;;;7.00;99.90;;;;;;5007494;28;20071;-79
2023/05/17 04:45:25;;;;;;;16.13;3.70;;;7.10;99.90;;;;;;4976079;28;20616;-80
2023/05/17 04:47:51;;;;;;;23.02;4.45;;;7.10;99.90;;;;;;5001836;28;20111;-80
2023/05/17 04:50:17;;;;;;;9.82;3.45;;;7.10;99.90;;;;;;5007291;28;20040;-80
2023/05/17 04:52:45;;;;;;;17.35;3.67;;;7.20;99.90;;;;;;4989149;28;20052;-79
2023/05/17 04:55:11;;;;;;;20.17;4.22;;;7.20;99.90;;;;;;4986508;28;20053;-79
2023/05/17 04:57:37;;;;;;;19.85;3.40;;;7.30;99.90;;;;;;4989131;28;20491;-79
2023/05/17 05:00:05;;;;;;;20.35;3.55;;;7.30;99.90;;;;;;4978565;28;20052;-80
2023/05/17 05:02:31;;;;;;;16.85;4.20;;;7.30;99.90;;;;;;4984807;28;20045;-80
2023/05/17 05:04:57;;;;;;;16.70;3.25;;;7.40;99.90;;;;;;4979314;28;20034;-79
2023/05/17 05:07:23;;;;;;;16.77;3.38;;;7.40;99.90;;;;;;4981431;28;20049;-80
2023/05/17 05:09:49;;;;;;;14.90;3.10;;;7.40;99.90;;;;;;4980496;28;20042;-80
2023/05/17 05:12:15;;;;;;;16.55;2.85;;;7.40;99.90;;;;;;4986230;28;20479;-80
2023/05/17 05:14:41;;;;;;;13.13;3.20;;;7.30;99.90;;;;;;4994610;28;20498;-79
2023/05/17 05:17:07;;;;;;;10.65;2.85;;;7.40;99.90;;;;;;4994683;28;20064;-81
2023/05/17 05:19:32;;;;;;;10.80;2.55;;;7.30;99.90;;;;;;4944744;28;20050;-79
2023/05/17 05:21:58;;;;;;;12.60;3.13;;;7.40;99.90;;;;;;4982049;28;20041;-80
2023/05/17 05:24:24;;;;;;;20.42;2.45;;;7.40;99.90;;;;;;4985517;28;20041;-79
2023/05/17 05:26:50;;;;;;;16.33;3.25;;;7.50;99.90;;;;;;4977324;28;20042;-78
2023/05/17 05:29:15;;;;;;;14.00;3.22;;;7.60;99.90;;;;;;4976132;28;20046;-78
2023/05/17 05:31:41;;;;;;;12.88;2.63;;;7.60;99.90;;;;;;4979289;28;20041;-78
2023/05/17 05:34:06;;;;;;;9.73;2.60;;;7.70;99.90;;;;;;4986333;28;20045;-78
2023/05/17 05:36:33;;;;;;;11.73;2.65;;;7.90;99.90;;;;;;4957009;28;20407;-81
2023/05/17 05:38:59;;;;;;;8.75;3.50;;;8.00;99.90;;;;;;4959520;28;20624;-79
2023/05/17 05:41:24;;;;;;;6.63;2.30;;;8.10;99.90;;;;;;5000000;28;20066;-80
2023/05/17 05:43:50;;;;;;;8.82;2.42;;;8.20;99.90;;;;;;4975948;28;20069;-77
2023/05/17 05:46:16;;;;;;;8.77;2.47;;;8.20;99.90;;;;;;4984742;28;20037;-80
2023/05/17 05:48:42;;;;;;;12.30;2.17;;;8.20;99.90;;;;;;4977638;28;20042;-79
2023/05/17 05:51:08;;;;;;;7.25;2.13;;;8.30;99.90;;;;;;4977629;28;20137;-77
2023/05/17 05:53:33;;;;;;;10.15;2.03;;;8.30;99.90;;;;;;4987801;28;20140;-76
2023/05/17 05:56:00;;;;;;;6.18;2.10;;;8.40;99.90;;;;;;4988358;28;20053;-76
2023/05/17 05:58:25;;;;;;;11.02;2.88;;;8.40;99.90;;;;;;4986435;28;20038;-76
2023/05/17 06:00:51;;;;;;;6.68;2.00;;;8.50;99.90;;;;;;4951136;28;20041;-77
2023/05/17 06:03:17;;;;;;;5.95;1.90;;;8.60;99.90;;;;;;4967063;28;20030;-75
2023/05/17 06:05:44;;;;;;;8.35;2.17;;;8.70;99.90;;;;;;4949072;28;20045;-90
2023/05/17 06:08:09;;;;;;;11.43;3.20;;;8.70;99.90;;;;;;4975780;28;20045;-78
2023/05/17 06:10:35;;;;;;;12.25;2.28;;;8.70;99.90;;;;;;4957387;28;20100;-77
2023/05/17 06:13:01;;;;;;;6.18;1.90;;;8.70;99.90;;;;;;4952445;28;20133;-78
2023/05/17 06:15:27;;;;;;;11.32;2.35;;;8.30;99.90;;;;;;4930114;28;20034;-78
2023/05/17 06:17:53;;;;;;;8.32;1.98;;;8.70;99.90;;;;;;4980856;28;20053;-78
2023/05/17 06:20:18;;;;;;;6.20;2.03;;;8.70;99.90;;;;;;4978990;28;20047;-78
2023/05/17 06:22:44;;;;;;;8.38;2.78;;;8.70;99.90;;;;;;4984354;28;20034;-78
2023/05/17 06:25:10;;;;;;;9.45;2.15;;;8.70;99.90;;;;;;4994500;28;20046;-78
2023/05/17 06:27:36;;;;;;;6.55;1.80;;;8.70;99.90;;;;;;4993797;28;20108;-78
2023/05/17 06:30:03;;;;;;;6.18;1.50;;;8.80;99.90;;;;;;4991857;28;20042;-78
2023/05/17 06:32:29;;;;;;;4.78;2.42;;;8.90;99.90;;;;;;4992359;28;20052;-78
2023/05/17 06:34:55;;;;;;;4.10;1.88;;;9.00;99.90;;;;;;4978625;28;20045;-78
2023/05/17 06:37:22;;;;;;;6.63;1.67;;;9.10;99.90;;;;;;4991727;28;20050;-78
2023/05/17 06:39:49;;;;;;;7.45;2.17;;;9.20;99.90;;;;;;4977792;28;20231;-78
2023/05/17 06:42:15;;;;;;;7.38;2.13;;;9.20;99.90;;;;;;4999857;28;20038;-78
2023/05/17 06:44:42;;;;;;;9.18;2.40;;;9.30;99.90;;;;;;4969593;28;20038;-79
2023/05/17 06:47:07;;;;;;;7.95;1.80;;;9.40;99.90;;;;;;4994490;28;20034;-78
2023/05/17 06:49:33;;;;;;;3.33;1.42;;;9.40;99.90;;;;;;4982419;28;20052;-79
2023/05/17 06:52:02;;;;;;;7.85;1.80;;;9.40;99.90;;;;;;4991021;28;20185;-78
2023/05/17 06:54:31;;;;;;;6.50;1.90;;;9.40;99.90;;;;;;5013890;28;20052;-78
2023/05/17 06:57:03;;;;;;;8.48;2.17;;;9.50;99.90;;;;;;5013851;28;20379;-78
2023/05/17 06:59:29;;;;;;;4.57;1.88;;;9.50;99.90;;;;;;5017268;28;20247;-78
2023/05/17 07:01:55;;;;;;;9.68;2.40;;;9.50;99.90;;;;;;4997558;28;20061;-78
2023/05/17 07:04:21;;;;;;;13.90;3.42;;;9.40;99.90;;;;;;5003765;28;20043;-78
2023/05/17 07:06:46;;;;;;;12.10;3.28;;;9.40;99.90;;;;;;4996911;28;20033;-78
2023/05/17 07:09:12;;;;;;;9.00;2.05;;;9.40;99.90;;;;;;5017336;28;20033;-78
2023/05/17 07:11:38;;;;;;;9.30;2.90;;;9.90;99.90;;;;;;5013497;28;20568;-78
2023/05/17 07:14:04;;;;;;;9.18;2.17;;;10.70;99.90;;;;;;4996287;28;20049;-78
2023/05/17 07:16:29;;;;;;;8.95;2.25;;;11.70;99.90;;;;;;4996874;28;20037;-78
2023/05/17 07:18:55;;;;;;;11.93;3.28;;;12.20;99.90;;;;;;5029203;28;20080;-78
2023/05/17 07:21:22;;;;;;;9.73;2.35;;;12.00;98.80;;;;;;4996164;28;20452;-78
2023/05/17 07:23:49;;;;;;;11.80;2.70;;;11.50;98.00;;;;;;5013610;28;20449;-78
2023/05/17 07:26:16;;;;;;;9.60;2.63;;;11.10;98.10;;;;;;4996964;28;20153;-78
2023/05/17 07:28:43;;;;;;;6.30;2.15;;;10.80;98.50;;;;;;5028625;28;20535;-78
2023/05/17 07:31:08;;;;;;;11.38;2.47;;;10.70;98.60;;;;;;5012386;28;20410;-78
2023/05/17 07:33:35;;;;;;;10.23;2.47;;;10.60;99.60;;;;;;4979387;28;20045;-79
2023/05/17 07:36:01;;;;;;;8.63;2.40;;;10.50;99.80;;;;;;5013328;28;20041;-78
2023/05/17 07:38:27;;;;;;;12.95;2.65;;;10.50;99.60;;;;;;5013131;28;20749;-78
2023/05/17 07:40:52;;;;;;;14.13;2.80;;;10.50;99.90;;;;;;5012338;28;20033;-79
2023/05/17 07:43:18;;;;;;;7.80;2.55;;;10.40;99.90;;;;;;4996510;28;20596;-78
2023/05/17 07:45:45;;;;;;;8.38;2.30;;;10.40;99.90;;;;;;5011049;28;20091;-78
2023/05/17 07:48:10;;;;;;;11.20;2.88;;;10.40;99.90;;;;;;4995399;28;20050;-78
2023/05/17 07:50:36;;;;;;;14.43;2.45;;;10.50;99.90;;;;;;5011393;28;20053;-78
2023/05/17 07:53:02;;;;;;;13.38;2.78;;;10.50;99.90;;;;;;4997111;28;20116;-78
2023/05/17 07:55:27;;;;;;;11.07;2.60;;;10.50;99.90;;;;;;4978995;28;20046;-78
2023/05/17 07:57:53;;;;;;;15.15;2.80;;;10.50;99.90;;;;;;4987497;28;20103;-78
2023/05/17 08:00:19;;;;;;;12.98;3.00;;;10.50;99.90;;;;;;4985577;28;20053;-78
2023/05/17 08:02:45;;;;;;;39.65;3.58;;;10.40;99.90;;;;;;4992676;28;20487;-78
2023/05/17 08:05:11;;;;;;;13.82;3.33;;;10.50;99.90;;;;;;4992282;28;20041;-78
2023/05/17 08:07:36;;;;;;;10.70;3.03;;;10.50;99.90;;;;;;4993197;28;20041;-79
2023/05/17 08:10:02;;;;;;;12.18;2.97;;;10.60;99.90;;;;;;5009214;28;20749;-78
2023/05/17 08:12:28;;;;;;;9.98;2.97;;;10.70;99.90;;;;;;4993002;28;20081;-78
2023/05/17 08:14:54;;;;;;;16.50;3.13;;;10.70;99.90;;;;;;4975765;28;20132;-79
2023/05/17 08:17:21;;;;;;;9.65;2.47;;;10.80;99.90;;;;;;4992495;28;20415;-78
2023/05/17 08:19:46;;;;;;;18.73;3.17;;;10.90;99.90;;;;;;4975759;28;20460;-78
2023/05/17 08:22:12;;;;;;;14.75;3.28;;;10.90;99.90;;;;;;4992997;28;20041;-78
2023/05/17 08:24:38;;;;;;;11.65;2.60;;;10.70;99.90;;;;;;4992827;28;20038;-78
2023/05/17 08:27:04;;;;;;;13.45;3.45;;;10.80;99.90;;;;;;4989977;28;20042;-78
2023/05/17 08:29:30;;;;;;;10.60;2.55;;;10.80;99.90;;;;;;4975169;28;20042;-79
2023/05/17 08:31:56;;;;;;;17.33;3.75;;;10.80;99.90;;;;;;4975603;28;20056;-78
2023/05/17 08:34:22;;;;;;;13.20;2.75;;;10.80;99.90;;;;;;4978855;28;20042;-79
2023/05/17 08:36:48;;;;;;;8.00;2.60;;;10.80;99.90;;;;;;4974981;28;20099;-79
2023/05/17 08:39:14;;;;;;;9.35;2.60;;;10.90;99.90;;;;;;4996294;28;20038;-78
2023/05/17 08:41:40;;;;;;;11.10;2.72;;;10.90;99.90;;;;;;4980565;28;20538;-78
2023/05/17 08:44:06;;;;;;;11.60;2.03;;;10.90;99.90;;;;;;4987272;28;20064;-79
2023/05/17 08:46:33;;;;;;;14.73;2.40;;;11.00;99.70;;;;;;4997302;28;20057;-78
2023/05/17 08:49:00;;;;;;;10.15;2.55;;;11.00;99.30;;;;;;5000571;28;20037;-78
2023/05/17 08:51:27;;;;;;;10.68;2.40;;;11.10;99.40;;;;;;5016149;28;20108;-79
2023/05/17 08:53:54;;;;;;;9.48;2.40;;;11.40;99.80;;;;;;4999891;28;20053;-78
2023/05/17 08:56:22;;;;;;;7.13;2.15;;;11.70;99.10;;;;;;5011188;28;20448;-79
2023/05/17 08:58:52;;;;;;;4.90;2.10;;;11.80;97.80;;;;;;4996949;28;20038;-78
2023/05/17 09:01:18;;;;;;;11.38;2.63;;;12.10;97.30;;;;;;5011483;28;20040;-78
2023/05/17 09:03:49;;;;;;;8.88;2.08;;;12.40;97.10;;;;;;4995727;28;20200;-78
2023/05/17 09:06:22;;;;;;;11.77;2.55;;;12.50;96.60;;;;;;4980428;28;20037;-79
2023/05/17 09:08:57;;;;;;;8.68;2.20;;;12.50;95.90;;;;;;4979899;28;20048;-79
2023/05/17 09:11:28;;;;;;;11.90;2.75;;;12.50;95.30;;;;;;4995903;28;20041;-79
2023/05/17 09:13:58;;;;;;;9.32;2.28;;;12.60;95.50;;;;;;5012473;28;20048;-78
2023/05/17 09:16:25;;;;;;;13.13;3.38;;;12.70;95.20;;;;;;4982525;28;20038;-79
2023/05/17 09:18:56;;;;;;;9.50;2.50;;;12.30;94.60;;;;;;4996592;28;20088;-79
2023/05/17 09:21:23;;;;;;;10.40;2.33;;;12.20;95.30;;;;;;4987609;28;20042;-78
2023/05/17 09:23:53;;;;;;;11.95;2.55;;;12.30;95.80;;;;;;4991163;28;20046;-77
2023/05/17 09:26:20;;;;;;;11.90;2.80;;;12.20;95.90;;;;;;4975774;28;20069;-79
2023/05/17 09:28:47;;;;;;;9.23;2.80;;;12.20;96.20;;;;;;4968558;28;20048;-78
2023/05/17 09:31:16;;;;;;;10.23;3.05;;;12.30;95.70;;;;;;4967494;28;21069;-79
2023/05/17 09:33:43;;;;;;;15.25;3.15;;;12.20;96.20;;;;;;4977954;28;20528;-79
2023/05/17 09:36:20;;;;;;;11.63;2.72;;;12.20;96.70;;;;;;4992648;28;20046;-79
2023/05/17 09:39:00;;;;;;;13.00;2.78;;;12.20;96.10;;;;;;4967558;28;20524;-79
2023/05/17 09:41:26;;;;;;;7.97;2.15;;;12.20;96.30;;;;;;4963080;28;20050;-79
2023/05/17 09:43:52;;;;;;;10.75;2.30;;;12.30;97.20;;;;;;4955730;28;20054;-79
2023/05/17 09:46:21;;;;;;;10.93;2.83;;;12.40;96.90;;;;;;4986356;28;20041;-79
2023/05/17 09:48:53;;;;;;;9.10;3.40;;;12.20;96.10;;;;;;4978546;28;20038;-80
2023/05/17 09:51:29;;;;;;;15.30;2.55;;;12.30;96.60;;;;;;4998869;28;20064;-78
2023/05/17 09:53:58;;;;;;;11.60;2.47;;;12.30;96.70;;;;;;4996632;28;20053;-79
2023/05/17 09:56:28;;;;;;;9.13;2.60;;;12.30;97.00;;;;;;4994366;28;20046;-79
2023/05/17 09:58:54;;;;;;;16.02;2.92;;;12.20;96.60;;;;;;4989308;28;20042;-78
2023/05/17 10:01:21;;;;;;;10.35;2.60;;;12.30;96.90;;;;;;4975277;28;20029;-78
2023/05/17 10:03:49;;;;;;;12.70;3.28;;;12.30;97.20;;;;;;4997346;28;20047;-78
2023/05/17 10:06:18;;;;;;;14.65;2.58;;;12.40;97.60;;;;;;4983644;28;20045;-78
2023/05/17 10:08:48;;;;;;;15.20;2.97;;;12.50;97.60;;;;;;5000176;28;20041;-77
2023/05/17 10:11:14;;;;;;;8.00;2.40;;;12.80;97.70;;;;;;4981825;28;20053;-79
2023/05/17 10:13:48;;;;;;;9.18;2.42;;;12.90;96.70;;;;;;4966473;28;20061;-78
2023/05/17 10:16:15;;;;;;;11.10;2.30;;;12.90;96.20;;;;;;4995902;28;20180;-78
2023/05/17 10:18:41;;;;;;;8.45;2.38;;;12.80;96.80;;;;;;4979228;28;20043;-79
2023/05/17 10:21:07;;;;;;;11.30;2.92;;;12.90;96.50;;;;;;4998538;28;20037;-79
2023/05/17 10:23:34;;;;;;;9.73;2.20;;;12.80;95.60;;;;;;4995167;28;20045;-78
2023/05/17 10:26:00;;;;;;;6.28;2.53;;;12.70;95.30;;;;;;5013356;28;20112;-79
2023/05/17 10:28:27;;;;;;;8.75;2.70;;;12.60;94.70;;;;;;4980213;28;20037;-78
2023/05/17 10:30:53;;;;;;;8.93;2.05;;;12.90;94.90;;;;;;4995630;28;20052;-78
2023/05/17 10:33:21;;;;;;;6.07;1.80;;;13.40;93.80;;;;;;4995635;28;20447;-78
2023/05/17 10:35:49;;;;;;;5.43;2.25;;;13.30;93.60;;;;;;4978115;28;20053;-78
2023/05/17 10:38:16;;;;;;;7.68;2.22;;;13.30;93.10;;;;;;4994805;28;21455;-78
2023/05/17 10:40:43;;;;;;;12.25;2.47;;;13.40;94.40;;;;;;4979453;28;20423;-77
2023/05/17 10:43:10;;;;;;;8.40;2.20;;;13.50;94.20;;;;;;4996938;28;20049;-78
2023/05/17 10:45:36;;;;;;;13.48;2.72;;;13.60;93.90;;;;;;4959270;28;20075;-78
2023/05/17 10:48:06;;;;;;;4.65;1.58;;;13.80;93.70;;;;;;4975927;28;20719;-76
2023/05/17 10:50:35;;;;;;;5.38;1.90;;;13.90;93.20;;;;;;5005664;28;20189;-77
2023/05/17 10:53:04;;;;;;;9.90;1.83;;;14.00;93.20;;;;;;4963724;28;20066;-80
2023/05/17 10:55:42;;;;;;;14.85;3.25;;;14.10;92.80;;;;;;4990961;28;20041;-78
2023/05/17 10:58:19;;;;;;;8.07;2.83;;;14.00;91.40;;;;;;5004337;28;20037;-79
2023/05/17 11:00:50;;;;;;;10.05;2.55;;;13.80;91.50;;;;;;5003745;28;20034;-78
2023/05/17 11:03:20;;;;;;;9.35;2.85;;;13.80;92.00;;;;;;5011622;28;20052;-78
2023/05/17 11:06:11;;;;;;;7.97;2.50;;;13.90;91.90;;;;;;4993252;28;20045;-78
2023/05/17 11:09:02;;;;;;;8.20;2.25;;;13.80;92.20;;;;;;4993686;28;20503;-79
2023/05/17 11:11:28;;;;;;;9.52;2.35;;;13.60;92.90;;;;;;4988152;28;20037;-78
2023/05/17 11:13:57;;;;;;;5.63;2.30;;;13.80;93.70;;;;;;4981434;28;20052;-78
2023/05/17 11:16:33;;;;;;;10.35;2.88;;;13.60;94.20;;;;;;4998444;28;20081;-78
2023/05/17 11:19:10;;;;;;;6.97;2.65;;;13.60;94.40;;;;;;4979347;28;20045;-78
2023/05/17 11:21:45;;;;;;;8.30;2.30;;;13.40;93.50;;;;;;4959179;28;20037;-79
2023/05/17 11:24:24;;;;;;;10.70;2.33;;;13.40;93.90;;;;;;4966488;28;20585;-78
2023/05/17 11:26:53;;;;;;;12.52;2.65;;;13.60;95.00;;;;;;4966609;28;20056;-78
2023/05/17 11:29:19;;;;;;;6.25;2.25;;;13.90;94.90;;;;;;4992195;28;20379;-78
2023/05/17 11:31:50;;;;;;;10.25;2.20;;;13.90;93.80;;;;;;4969137;28;20053;-78
2023/05/17 11:34:17;;;;;;;7.53;2.25;;;13.90;93.20;;;;;;4958075;28;20142;-77
2023/05/17 11:36:51;;;;;;;9.45;2.42;;;13.80;93.40;;;;;;4970644;28;20046;-78
2023/05/17 11:39:20;;;;;;;5.93;2.00;;;13.60;92.60;;;;;;5020270;28;20038;-79
2023/05/17 11:41:50;;;;;;;10.68;1.95;;;13.50;93.20;;;;;;4992222;28;20045;-79
2023/05/17 11:44:30;;;;;;;5.72;2.83;;;13.60;93.20;;;;;;4994199;28;20040;-79
2023/05/17 11:47:08;;;;;;;5.88;2.03;;;14.10;94.00;;;;;;4983897;28;20042;-78
2023/05/17 11:49:37;;;;;;;10.35;2.30;;;14.60;92.60;;;;;;4976403;28;20042;-79
2023/05/17 11:52:04;;;;;;;8.43;2.22;;;15.00;92.70;;;;;;4995825;28;20069;-78
2023/05/17 11:54:30;;;;;;;4.88;1.83;;;15.20;92.30;;;;;;5008064;28;20125;-78
2023/05/17 11:56:58;;;;;;;7.90;2.38;;;15.10;91.20;;;;;;4991099;28;20104;-78
2023/05/17 11:59:24;;;;;;;8.20;1.80;;;14.90;91.00;;;;;;4983580;28;20470;-78
2023/05/17 12:01:50;;;;;;;7.93;2.00;;;14.80;90.80;;;;;;5015947;28;20116;-79
2023/05/17 12:04:26;;;;;;;10.30;2.63;;;14.70;89.30;;;;;;4988810;28;20373;-78
2023/05/17 12:06:56;;;;;;;10.50;2.33;;;14.60;89.90;;;;;;4992550;28;20088;-78
2023/05/17 12:09:23;;;;;;;6.40;2.17;;;14.70;90.40;;;;;;5006551;28;20095;-78
2023/05/17 12:11:48;;;;;;;7.38;2.35;;;14.70;90.30;;;;;;4997840;28;20069;-78
2023/05/17 12:14:17;;;;;;;8.70;1.98;;;14.80;90.50;;;;;;4992576;28;20065;-78
2023/05/17 12:16:57;;;;;;;9.73;2.72;;;14.60;89.60;;;;;;4976811;28;20037;-78
2023/05/17 12:19:28;;;;;;;6.32;1.67;;;14.80;89.80;;;;;;4993444;28;20110;-78
2023/05/17 12:22:07;;;;;;;5.72;2.20;;;15.10;90.20;;;;;;4994421;28;20048;-78
2023/05/17 12:24:41;;;;;;;4.88;2.20;;;15.20;88.70;;;;;;4996204;28;20076;-78
2023/05/17 12:27:07;;;;;;;7.20;2.22;;;15.00;88.40;;;;;;4988606;28;20079;-78
2023/05/17 12:29:33;;;;;;;5.85;2.20;;;15.00;89.20;;;;;;4981961;28;20041;-78
2023/05/17 12:32:00;;;;;;;6.00;2.25;;;14.90;88.00;;;;;;4991146;28;20100;-78
2023/05/17 12:34:29;;;;;;;5.50;2.00;;;15.10;87.70;;;;;;4976151;28;20100;-78
2023/05/17 12:36:55;;;;;;;17.50;3.35;;;15.20;87.30;;;;;;4992893;28;20495;-77
2023/05/17 12:39:22;;;;;;;5.28;1.67;;;15.10;88.30;;;;;;4992763;28;20121;-78
2023/05/17 12:41:52;;;;;;;5.43;1.55;;;14.90;87.20;;;;;;5003619;28;20552;-78
2023/05/17 12:44:21;;;;;;;5.28;1.60;;;15.00;86.40;;;;;;4961028;28;20041;-78
2023/05/17 12:46:52;;;;;;;10.73;2.78;;;14.60;86.40;;;;;;4991811;28;20042;-78
2023/05/17 12:49:21;;;;;;;7.03;2.40;;;14.70;88.30;;;;;;4992039;28;20499;-78